createdAt,value
2019-04-22T00:02:57.534Z,38.04
2019-04-22T00:08:19.724Z,38.26
2019-04-22T00:13:37.526Z,38.61
2019-04-22T00:18:52.996Z,39.01
2019-04-22T00:23:39.232Z,39.12
2019-04-22T00:28:43.915Z,38.96
2019-04-22T00:33:48.098Z,39.40
2019-04-22T00:38:58.711Z,39.56
2019-04-22T00:44:02.593Z,39.61
2019-04-22T00:49:52.740Z,39.85
2019-04-22T00:54:10.303Z,39.70
2019-04-22T00:59:12.917Z,40.17
2019-04-22T01:04:31.565Z,40.45
2019-04-22T01:09:24.503Z,40.68
2019-04-22T01:14:29.727Z,41.08
2019-04-22T01:19:38.734Z,41.42
2019-04-22T01:24:38.836Z,41.90
2019-04-22T01:29:34.961Z,42.28
2019-04-22T01:34:40.447Z,42.74
2019-04-22T01:40:06.574Z,43.25
2019-04-22T01:45:06.990Z,43.76
2019-04-22T01:50:12.281Z,44.35
2019-04-22T01:55:18.930Z,45.54
2019-04-22T02:00:14.136Z,46.07
2019-04-22T02:05:24.546Z,47.12
2019-04-22T02:10:40.341Z,47.43
2019-04-22T02:15:43.730Z,47.88
2019-04-22T02:20:43.084Z,48.52
2019-04-22T02:25:59.315Z,49.07
2019-04-22T02:41:26.214Z,50.49
2019-04-22T02:51:23.022Z,51.70
2019-04-22T02:56:39.928Z,53.06
2019-04-22T03:11:50.025Z,55.85
2019-04-22T03:21:54.604Z,57.82
2019-04-22T03:27:00.853Z,57.80
2019-04-22T03:32:32.160Z,58.09
2019-04-22T03:42:11.626Z,59.06
2019-04-22T03:47:29.111Z,58.92
2019-04-22T03:52:24.698Z,59.14
2019-04-22T04:02:52.348Z,59.53
2019-04-22T04:17:56.983Z,59.52
2019-04-22T04:23:07.999Z,60.19
2019-04-22T04:33:21.174Z,58.83
2019-04-22T04:38:11.678Z,59.10
2019-04-22T04:48:34.435Z,58.70
2019-04-22T04:53:33.581Z,58.42
2019-04-22T05:03:52.301Z,56.82
2019-04-22T05:19:00.038Z,56.73
2019-04-22T05:24:02.442Z,56.28
2019-04-22T05:29:05.516Z,55.83
2019-04-22T05:34:08.544Z,54.97
2019-04-22T05:39:14.223Z,44.43
2019-04-22T05:44:36.146Z,37.20
2019-04-22T05:49:23.875Z,34.80
2019-04-22T05:54:35.179Z,32.33
2019-04-22T05:59:39.722Z,32.85
2019-04-22T06:04:48.426Z,29.23
2019-04-22T06:09:43.491Z,29.54
2019-04-22T06:14:54.111Z,30.71
2019-04-22T06:19:57.520Z,28.83
2019-04-22T06:25:27.600Z,28.28
2019-04-22T06:30:10.767Z,25.93
2019-04-22T06:35:23.679Z,26.50
2019-04-22T06:40:27.489Z,25.43
2019-04-22T06:45:32.367Z,26.90
2019-04-22T06:50:40.561Z,24.96
2019-04-22T06:55:41.271Z,24.09
2019-04-22T07:00:43.309Z,24.80
2019-04-22T07:05:47.566Z,25.17
2019-04-22T07:10:50.415Z,25.01
2019-04-22T07:21:06.132Z,25.16
2019-04-22T07:26:08.215Z,25.98
2019-04-22T07:31:17.456Z,32.64
2019-04-22T07:36:38.188Z,35.72
2019-04-22T07:41:28.794Z,35.07
2019-04-22T07:46:33.567Z,27.09
2019-04-22T07:51:41.102Z,31.15
2019-04-22T07:56:48.738Z,25.28
2019-04-22T08:02:04.799Z,20.26
2019-04-22T08:06:58.938Z,25.40
2019-04-22T08:11:59.520Z,29.67
2019-04-22T08:17:14.172Z,21.21
2019-04-22T08:22:12.489Z,26.12
2019-04-22T08:27:17.366Z,33.57
2019-04-22T08:32:26.348Z,28.63
2019-04-22T08:42:42.942Z,26.49
2019-04-22T08:47:36.156Z,31.77
2019-04-22T08:52:40.656Z,22.53
2019-04-22T09:02:54.016Z,29.02
2019-04-22T09:08:01.460Z,24.94
2019-04-22T09:18:16.059Z,27.72
2019-04-22T09:23:14.803Z,32.23
2019-04-22T09:28:24.556Z,29.80
2019-04-22T09:33:27.255Z,31.48
2019-04-22T09:43:40.754Z,31.22
2019-04-22T09:48:48.825Z,29.68
2019-04-22T09:53:54.800Z,30.45
2019-04-22T09:58:58.881Z,29.91
2019-04-22T10:14:05.556Z,32.95
2019-04-22T10:19:12.044Z,33.23
2019-04-22T10:24:18.664Z,32.46
2019-04-22T10:29:32.422Z,30.73
2019-04-22T10:34:16.766Z,33.66
2019-04-22T10:39:10.576Z,35.48
2019-04-22T10:44:15.317Z,33.18
2019-04-22T10:49:20.310Z,34.67
2019-04-22T10:54:25.260Z,34.88
2019-04-22T10:59:29.019Z,35.55
2019-04-22T11:04:32.626Z,34.99
2019-04-22T11:09:47.656Z,36.56
2019-04-22T11:14:43.286Z,36.44
2019-04-22T11:19:47.895Z,38.47
2019-04-22T11:24:52.897Z,36.99
2019-04-22T11:29:57.396Z,38.64
2019-04-22T11:35:01.710Z,38.79
2019-04-22T11:40:18.958Z,39.18
2019-04-22T11:45:13.606Z,38.89
2019-04-22T11:50:17.737Z,40.68
2019-04-22T11:55:22.529Z,39.33
2019-04-22T12:00:27.919Z,39.70
2019-04-22T12:05:32.226Z,38.46
2019-04-22T12:10:44.122Z,40.41
2019-04-22T12:15:42.713Z,40.80
2019-04-22T12:20:47.482Z,40.32
2019-04-22T12:25:58.037Z,39.00
2019-04-22T12:30:57.388Z,39.41
2019-04-22T12:36:02.358Z,40.57
2019-04-22T12:41:09.896Z,39.74
2019-04-22T12:46:12.158Z,39.52
2019-04-22T12:51:15.776Z,38.65
2019-04-22T12:56:19.687Z,30.68
2019-04-22T13:01:24.680Z,28.31
2019-04-22T13:06:30.313Z,28.55
2019-04-22T13:11:36.408Z,29.74
2019-04-22T13:16:40.727Z,29.68
2019-04-22T13:21:44.843Z,29.40
2019-04-22T13:26:48.836Z,29.02
2019-04-22T13:31:53.132Z,29.91
2019-04-22T13:36:56.949Z,29.43
2019-04-22T13:42:05.630Z,30.57
2019-04-22T13:47:24.072Z,31.15
2019-04-22T13:57:32.553Z,31.35
2019-04-22T14:02:26.732Z,31.34
2019-04-22T14:07:30.714Z,31.55
2019-04-22T14:12:34.943Z,31.94
2019-04-22T14:17:39.061Z,31.82
2019-04-22T14:22:44.300Z,32.71
2019-04-22T14:27:56.562Z,32.82
2019-04-22T14:32:54.095Z,33.14
2019-04-22T14:37:58.493Z,33.45
2019-04-22T14:43:25.206Z,33.36
2019-04-22T14:48:35.688Z,33.41
2019-04-22T14:53:35.269Z,33.53
2019-04-22T14:58:19.287Z,33.57
2019-04-22T15:03:23.839Z,33.31
2019-04-22T15:08:28.864Z,33.08
2019-04-22T15:13:33.558Z,32.88
2019-04-22T15:18:55.672Z,32.81
2019-04-22T15:24:02.411Z,32.74
2019-04-22T15:29:07.201Z,32.65
2019-04-22T15:34:12.303Z,32.56
2019-04-22T15:39:17.265Z,32.41
2019-04-22T15:44:21.959Z,32.05
2019-04-22T15:49:25.843Z,32.05
2019-04-22T15:54:29.855Z,32.30
2019-04-22T15:59:49.346Z,31.69
2019-04-22T16:04:38.940Z,31.55
2019-04-22T16:09:43.505Z,31.57
2019-04-22T16:14:53.040Z,31.53
2019-04-22T16:19:53.299Z,31.62
2019-04-22T16:25:15.396Z,31.63
2019-04-22T16:30:19.276Z,31.55
2019-04-22T16:35:22.870Z,31.39
2019-04-22T16:40:26.972Z,31.47
2019-04-22T16:45:31.636Z,31.46
2019-04-22T16:50:38.275Z,31.29
2019-04-22T16:55:41.035Z,30.47
2019-04-22T17:00:46.938Z,30.44
2019-04-22T17:05:52.177Z,30.30
2019-04-22T17:10:57.686Z,29.79
2019-04-22T17:16:02.320Z,29.62
2019-04-22T17:21:08.461Z,29.83
2019-04-22T17:26:12.567Z,29.81
2019-04-22T17:31:16.545Z,30.13
2019-04-22T17:36:20.541Z,30.23
2019-04-22T17:41:38.843Z,30.55
2019-04-22T17:46:48.652Z,31.03
2019-04-22T17:57:24.001Z,31.20
2019-04-22T18:02:25.196Z,31.55
2019-04-22T18:07:44.483Z,31.87
2019-04-22T18:12:45.576Z,32.11
2019-04-22T18:17:45.009Z,32.42
2019-04-22T18:22:41.750Z,32.61
2019-04-22T18:28:03.845Z,32.88
2019-04-22T18:32:55.629Z,32.86
2019-04-22T18:38:15.427Z,32.92
2019-04-22T18:43:11.912Z,33.11
2019-04-22T18:48:08.740Z,33.22
2019-04-22T18:53:30.091Z,33.49
2019-04-22T18:58:24.634Z,33.53
2019-04-22T19:03:22.667Z,33.57
2019-04-22T19:08:43.315Z,33.63
2019-04-22T19:14:02.302Z,33.46
2019-04-22T19:19:18.427Z,33.29
2019-04-22T19:24:03.143Z,33.25
2019-04-22T19:29:05.611Z,33.14
2019-04-22T19:34:12.630Z,33.05
2019-04-22T19:39:12.127Z,33.00
2019-04-22T19:44:29.189Z,33.01
2019-04-22T19:49:38.326Z,33.00
2019-04-22T19:54:38.980Z,33.00
2019-04-22T19:59:42.578Z,33.00
2019-04-22T20:05:05.912Z,32.63
2019-04-22T20:10:05.302Z,32.12
2019-04-22T20:15:10.046Z,31.28
2019-04-22T20:20:23.137Z,30.28
2019-04-22T20:25:27.237Z,30.02
2019-04-22T20:30:34.553Z,29.88
2019-04-22T20:35:43.490Z,29.87
2019-04-22T20:40:42.660Z,30.02
2019-04-22T20:45:51.147Z,29.95
2019-04-22T20:50:59.297Z,29.95
2019-04-22T20:56:04.317Z,30.15
2019-04-22T21:01:05.054Z,30.17
2019-04-22T21:06:14.859Z,30.40
2019-04-22T21:11:24.850Z,30.58
2019-04-22T21:16:32.845Z,30.87
2019-04-22T21:21:37.999Z,31.20
2019-04-22T21:26:43.767Z,31.52
2019-04-22T21:31:51.161Z,31.81
2019-04-22T21:37:06.211Z,31.98
2019-04-22T21:41:58.716Z,32.15
2019-04-22T21:47:14.926Z,32.38
2019-04-22T21:52:16.941Z,35.88
2019-04-22T21:57:24.135Z,39.91
2019-04-22T22:07:17.225Z,39.67
2019-04-22T22:12:46.005Z,39.84
2019-04-22T22:17:42.899Z,39.53
2019-04-22T22:22:52.198Z,39.39
2019-04-22T22:27:47.658Z,39.21
2019-04-22T22:33:04.117Z,39.06
2019-04-22T22:38:05.465Z,38.87
2019-04-22T22:42:52.977Z,38.68
2019-04-22T22:48:24.091Z,38.40
2019-04-22T22:53:32.694Z,37.99
2019-04-22T22:58:27.514Z,38.02
2019-04-22T23:03:46.006Z,37.80
2019-04-22T23:08:38.190Z,37.71
2019-04-22T23:13:44.335Z,37.50
2019-04-22T23:18:28.018Z,36.87
2019-04-22T23:23:51.159Z,35.85
2019-04-22T23:28:50.932Z,34.52
2019-04-22T23:34:01.479Z,33.22
2019-04-22T23:39:10.848Z,32.46
2019-04-22T23:49:12.874Z,31.99
2019-04-22T23:54:23.956Z,31.67
2019-04-22T23:59:41.364Z,31.68
